Time;durP1;ratioP1;P1;durP2;ratioP2;P2;SDS_P1;SDS_P2;PMS_P1;PMS_P2;Temp;Humidity;BMP_temperature;BMP_pressure;BME280_temperature;BME280_humidity;BME280_pressure;Samples;Min_cycle;Max_cycle;Signal;HPM_P1;HPM_P2
2023/12/20 00:01:28;;;;;;;42.80;23.20;;;;;;;1.58;100.00;100942.19;109192;1252;59828;-87
2023/12/20 00:03:57;;;;;;;40.10;23.20;;;;;;;1.60;100.00;100929.06;109158;1251;59487;-81
2023/12/20 00:06:26;;;;;;;39.10;22.40;;;;;;;1.67;100.00;100928.52;109188;1251;73476;-83
2023/12/20 00:08:55;;;;;;;40.50;22.50;;;;;;;1.64;100.00;100927.94;109184;1251;70944;-83
2023/12/20 00:11:24;;;;;;;38.70;22.40;;;;;;;1.68;100.00;100923.86;108914;1251;69343;-83
2023/12/20 00:13:53;;;;;;;37.50;21.40;;;;;;;1.63;100.00;100914.23;109181;1251;70917;-82
2023/12/20 00:16:22;;;;;;;33.50;20.10;;;;;;;1.59;100.00;100912.61;109194;1252;61105;-83
2023/12/20 00:18:51;;;;;;;36.80;20.70;;;;;;;1.51;100.00;100909.77;109129;1251;60632;-83
2023/12/20 00:21:19;;;;;;;36.30;20.90;;;;;;;1.41;100.00;100907.00;109010;1251;72994;-83
2023/12/20 00:23:48;;;;;;;35.60;21.00;;;;;;;1.44;100.00;100908.61;109191;1251;70944;-83
2023/12/20 00:26:17;;;;;;;38.10;21.30;;;;;;;1.49;100.00;100901.45;109182;1251;68596;-89
2023/12/20 00:28:46;;;;;;;35.40;20.50;;;;;;;1.44;100.00;100901.28;109087;1252;73817;-86
2023/12/20 00:31:14;;;;;;;32.20;20.30;;;;;;;1.45;100.00;100900.02;109170;1252;62200;-86
2023/12/20 00:33:43;;;;;;;35.10;20.50;;;;;;;1.50;100.00;100899.16;109108;1251;60202;-86
2023/12/20 00:36:13;;;;;;;35.60;20.50;;;;;;;1.56;100.00;100891.27;109073;1251;73496;-86
2023/12/20 00:38:41;;;;;;;39.80;20.20;;;;;;;1.60;100.00;100884.59;108835;1251;71993;-84
2023/12/20 00:41:10;;;;;;;37.10;20.20;;;;;;;1.57;100.00;100889.15;109060;1251;68282;-84
2023/12/20 00:43:39;;;;;;;34.80;19.60;;;;;;;1.53;100.00;100891.86;109020;1252;70992;-84
2023/12/20 00:46:08;;;;;;;34.10;19.20;;;;;;;1.53;100.00;100889.79;109033;1252;61988;-84
2023/12/20 00:48:37;;;;;;;35.00;20.20;;;;;;;1.47;100.00;100892.23;108986;1251;60913;-84
2023/12/20 00:51:06;;;;;;;36.90;22.50;;;;;;;1.44;100.00;100888.73;109090;1251;73379;-85
2023/12/20 00:53:35;;;;;;;39.80;21.80;;;;;;;1.42;100.00;100879.52;109027;1251;72457;-86
2023/12/20 00:56:03;;;;;;;37.80;20.80;;;;;;;1.38;100.00;100870.05;109019;1251;70717;-84
2023/12/20 00:58:32;;;;;;;38.60;21.20;;;;;;;1.40;100.00;100875.65;109029;1251;74343;-84
2023/12/20 01:01:01;;;;;;;39.00;20.50;;;;;;;1.36;100.00;100873.02;109071;1255;60274;-82
2023/12/20 01:03:30;;;;;;;36.00;21.20;;;;;;;1.38;100.00;100869.70;109172;1251;58780;-83
2023/12/20 01:05:59;;;;;;;37.40;21.90;;;;;;;1.35;100.00;100866.20;109127;1251;72532;-84
2023/12/20 01:08:27;;;;;;;39.30;23.40;;;;;;;1.36;100.00;100860.00;109172;1251;71910;-84
2023/12/20 01:10:56;;;;;;;38.30;22.10;;;;;;;1.32;100.00;100857.88;109156;1251;69291;-84
2023/12/20 01:13:25;;;;;;;34.60;20.60;;;;;;;1.33;100.00;100854.92;109043;1251;72105;-84
2023/12/20 01:15:54;;;;;;;37.20;22.70;;;;;;;1.34;100.00;100853.17;109001;1254;61011;-84
2023/12/20 01:18:22;;;;;;;36.90;21.50;;;;;;;1.31;100.00;100848.82;109025;1251;61652;-82
2023/12/20 01:20:51;;;;;;;37.50;22.30;;;;;;;1.26;100.00;100844.50;109088;1251;63195;-84
2023/12/20 01:23:20;;;;;;;34.20;20.10;;;;;;;1.21;100.00;100838.66;109024;1254;69302;-84
2023/12/20 01:25:49;;;;;;;37.80;21.10;;;;;;;1.14;100.00;100837.33;109147;1252;69830;-85
2023/12/20 01:28:17;;;;;;;37.20;21.80;;;;;;;1.08;100.00;100833.59;109166;1253;74382;-84
2023/12/20 01:30:46;;;;;;;37.50;20.90;;;;;;;1.01;100.00;100821.61;109004;1251;61006;-84
2023/12/20 01:33:15;;;;;;;36.80;20.40;;;;;;;0.97;100.00;100818.31;109020;1251;61244;-84
2023/12/20 01:35:44;;;;;;;33.90;21.80;;;;;;;0.92;100.00;100815.40;109025;1252;72011;-84
2023/12/20 01:38:13;;;;;;;35.70;21.10;;;;;;;0.91;100.00;100809.58;109040;1251;72141;-83
2023/12/20 01:40:41;;;;;;;35.40;21.80;;;;;;;0.98;100.00;100806.47;108970;1251;70189;-88
2023/12/20 01:43:12;;;;;;;32.70;20.70;;;;;;;0.94;100.00;100803.15;109039;1251;72497;-87
2023/12/20 01:45:41;;;;;;;33.40;20.10;;;;;;;0.92;100.00;100800.31;109041;1255;61220;-87
2023/12/20 01:48:10;;;;;;;39.50;22.80;;;;;;;0.90;100.00;100800.88;109036;1251;61406;-88
2023/12/20 01:50:40;;;;;;;46.50;29.10;;;;;;;0.87;100.00;100808.15;108968;1251;72558;-88
2023/12/20 01:53:12;;;;;;;44.30;26.70;;;;;;;0.97;100.00;100810.25;109061;1251;71634;-87
2023/12/20 01:55:41;;;;;;;44.80;26.00;;;;;;;1.06;100.00;100804.30;108836;1251;68419;-85
2023/12/20 01:58:12;;;;;;;41.20;24.40;;;;;;;1.11;100.00;100796.61;108764;1251;73026;-84
2023/12/20 02:00:41;;;;;;;40.30;24.30;;;;;;;1.15;100.00;100795.44;108986;1251;62348;-84
2023/12/20 02:03:10;;;;;;;48.00;26.20;;;;;;;1.17;100.00;100794.20;109079;1251;59186;-83
2023/12/20 02:05:39;;;;;;;52.40;28.50;;;;;;;1.14;100.00;100794.64;109160;1251;73470;-83
2023/12/20 02:08:07;;;;;;;48.40;27.00;;;;;;;1.14;100.00;100788.45;108878;1251;71928;-83
2023/12/20 02:10:36;;;;;;;49.00;26.40;;;;;;;1.14;100.00;100778.16;109067;1251;67554;-87
2023/12/20 02:13:05;;;;;;;49.30;27.00;;;;;;;1.18;100.00;100772.04;108800;1251;72036;-85
2023/12/20 02:15:36;;;;;;;48.10;25.70;;;;;;;1.21;100.00;100771.23;109052;1254;59447;-82
2023/12/20 02:18:06;;;;;;;43.20;25.80;;;;;;;1.24;100.00;100769.44;109085;1254;58427;-80
2023/12/20 02:20:34;;;;;;;45.20;26.40;;;;;;;1.25;100.00;100767.52;109098;1254;73414;-85
2023/12/20 02:23:04;;;;;;;41.90;26.00;;;;;;;1.28;100.00;100766.04;109108;1254;71406;-84
2023/12/20 02:25:33;;;;;;;46.20;25.90;;;;;;;1.27;100.00;100761.95;109209;1254;68905;-83
2023/12/20 02:28:02;;;;;;;39.60;22.60;;;;;;;1.23;100.00;100753.69;109187;1253;71922;-84
2023/12/20 02:30:31;;;;;;;42.00;22.80;;;;;;;1.19;100.00;100749.67;109163;1254;60657;-84
2023/12/20 02:33:01;;;;;;;40.00;23.20;;;;;;;1.13;100.00;100744.23;109225;1252;59634;-83
2023/12/20 02:35:30;;;;;;;43.00;24.20;;;;;;;1.06;100.00;100741.20;108961;1252;70872;-84
2023/12/20 02:37:58;;;;;;;43.30;25.60;;;;;;;1.09;100.00;100740.41;109148;1252;72001;-85
2023/12/20 02:40:27;;;;;;;40.40;24.20;;;;;;;1.10;100.00;100742.77;109265;1251;69610;-85
2023/12/20 02:42:56;;;;;;;42.00;25.70;;;;;;;1.14;100.00;100732.87;109468;1255;71802;-80
2023/12/20 02:45:26;;;;;;;42.80;25.40;;;;;;;1.15;100.00;100730.27;109437;1254;61934;-85
2023/12/20 02:47:55;;;;;;;43.10;25.20;;;;;;;1.16;100.00;100729.38;109114;1255;60508;-82
2023/12/20 02:50:24;;;;;;;40.90;25.30;;;;;;;1.17;100.00;100730.70;109201;1252;70657;-77
2023/12/20 02:52:53;;;;;;;37.00;22.20;;;;;;;1.12;100.00;100727.95;109088;1255;69735;-81
2023/12/20 02:55:22;;;;;;;44.00;23.40;;;;;;;1.05;100.00;100724.94;109200;1251;70403;-79
2023/12/20 02:57:51;;;;;;;37.30;23.60;;;;;;;0.97;100.00;100725.55;109208;1254;74038;-80
2023/12/20 03:00:19;;;;;;;42.30;24.30;;;;;;;0.86;100.00;100723.13;109218;1255;62513;-81
2023/12/20 03:02:48;;;;;;;41.00;25.70;;;;;;;0.84;100.00;100716.89;109194;1252;59860;-80
2023/12/20 03:05:17;;;;;;;38.40;23.80;;;;;;;0.86;100.00;100712.19;109193;1251;70756;-80
2023/12/20 03:07:46;;;;;;;41.80;24.60;;;;;;;0.75;100.00;100716.63;109210;1251;71329;-80
2023/12/20 03:10:15;;;;;;;42.70;24.10;;;;;;;0.70;100.00;100725.02;109231;1252;67994;-80
2023/12/20 03:12:54;;;;;;;48.20;26.80;;;;;;;0.63;100.00;100716.84;109211;1254;72539;-80
2023/12/20 03:15:22;;;;;;;41.50;23.60;;;;;;;0.54;100.00;100710.96;109161;1254;61663;-79
2023/12/20 03:17:51;;;;;;;42.90;24.40;;;;;;;0.47;100.00;100713.39;109115;1254;59294;-79
2023/12/20 03:20:20;;;;;;;46.60;24.60;;;;;;;0.49;100.00;100719.85;109045;1255;71043;-78
2023/12/20 03:22:49;;;;;;;41.80;23.70;;;;;;;0.50;100.00;100715.36;109065;1254;70846;-79
2023/12/20 03:25:18;;;;;;;42.10;24.50;;;;;;;0.45;100.00;100718.42;109072;1254;67567;-79
2023/12/20 03:27:47;;;;;;;40.60;25.40;;;;;;;0.45;100.00;100714.00;108987;1253;73901;-80
2023/12/20 03:30:16;;;;;;;41.50;25.00;;;;;;;0.49;100.00;100710.60;109028;1255;62002;-80
2023/12/20 03:32:45;;;;;;;43.50;26.30;;;;;;;0.55;100.00;100710.43;109069;1251;60795;-80
2023/12/20 03:35:14;;;;;;;42.50;25.20;;;;;;;0.61;100.00;100700.95;109084;1255;71183;-79
2023/12/20 03:37:43;;;;;;;45.40;26.00;;;;;;;0.64;100.00;100701.22;109164;1253;70136;-79
2023/12/20 03:40:12;;;;;;;44.00;24.70;;;;;;;0.67;100.00;100696.16;109071;1255;68592;-77
2023/12/20 03:42:41;;;;;;;41.00;24.70;;;;;;;0.70;100.00;100697.93;109112;1255;71917;-80
2023/12/20 03:45:10;;;;;;;41.10;26.40;;;;;;;0.71;100.00;100694.65;109139;1252;60939;-77
2023/12/20 03:47:38;;;;;;;43.80;26.80;;;;;;;0.64;100.00;100693.69;109090;1251;61531;-78
2023/12/20 03:50:07;;;;;;;41.90;24.30;;;;;;;0.54;100.00;100691.23;109035;1255;71413;-80
2023/12/20 03:52:36;;;;;;;41.20;24.80;;;;;;;0.47;100.00;100692.14;108963;1251;72118;-81
2023/12/20 03:55:06;;;;;;;36.80;23.40;;;;;;;0.47;100.00;100689.56;108947;1255;68321;-81
2023/12/20 03:57:35;;;;;;;37.20;22.90;;;;;;;0.41;100.00;100691.13;108964;1255;71104;-82
2023/12/20 04:00:05;;;;;;;40.70;24.20;;;;;;;0.39;100.00;100687.08;109028;1251;61094;-78
2023/12/20 04:02:40;;;;;;;37.50;23.50;;;;;;;0.35;100.00;100681.73;109068;1252;58707;-78
2023/12/20 04:05:10;;;;;;;39.50;22.90;;;;;;;0.29;100.00;100670.59;108868;1255;71571;-79
2023/12/20 04:07:39;;;;;;;39.30;22.30;;;;;;;0.18;100.00;100673.85;109128;1251;71282;-81
2023/12/20 04:10:09;;;;;;;42.10;25.10;;;;;;;0.15;100.00;100677.53;109171;1251;70153;-81
2023/12/20 04:12:37;;;;;;;43.00;25.70;;;;;;;0.16;100.00;100683.66;109226;1251;73575;-77
2023/12/20 04:15:09;;;;;;;41.40;23.80;;;;;;;0.13;100.00;100682.90;109143;1254;60920;-78
2023/12/20 04:17:38;;;;;;;43.00;25.30;;;;;;;0.05;100.00;100681.27;109081;1255;59511;-77
2023/12/20 04:20:08;;;;;;;38.90;24.60;;;;;;;0.01;100.00;100678.30;109169;1254;71127;-77
2023/12/20 04:22:37;;;;;;;39.30;21.70;;;;;;;0.05;100.00;100680.73;109149;1252;69726;-78
2023/12/20 04:25:06;;;;;;;37.60;22.00;;;;;;;0.05;100.00;100673.89;109182;1251;70998;-78
2023/12/20 04:27:35;;;;;;;34.70;20.90;;;;;;;-0.00;100.00;100664.29;108981;1252;73719;-77
2023/12/20 04:30:04;;;;;;;37.30;21.80;;;;;;;-0.04;100.00;100666.11;109170;1254;62209;-77
2023/12/20 04:32:33;;;;;;;39.90;23.50;;;;;;;-0.02;100.00;100663.66;109077;1251;61003;-78
2023/12/20 04:35:03;;;;;;;38.00;22.50;;;;;;;-0.01;100.00;100658.33;108965;1255;73716;-78
2023/12/20 04:37:32;;;;;;;38.70;22.60;;;;;;;0.02;100.00;100656.01;109004;1251;72687;-78
2023/12/20 04:40:01;;;;;;;37.00;24.00;;;;;;;0.06;100.00;100655.73;109017;1254;70709;-77
2023/12/20 04:42:30;;;;;;;39.90;23.30;;;;;;;0.04;100.00;100655.08;108990;1255;73877;-78
2023/12/20 04:44:58;;;;;;;36.50;22.00;;;;;;;0.06;100.00;100657.08;109006;1255;62297;-78
2023/12/20 04:47:27;;;;;;;43.40;24.80;;;;;;;0.10;100.00;100655.92;108997;1255;58662;-78
2023/12/20 04:49:56;;;;;;;38.50;22.50;;;;;;;0.17;100.00;100652.98;108911;1255;71543;-78
2023/12/20 04:52:25;;;;;;;37.40;22.80;;;;;;;0.17;100.00;100652.30;108992;1255;69362;-83
2023/12/20 04:54:54;;;;;;;39.70;24.10;;;;;;;0.12;100.00;100652.79;109007;1252;68432;-80
2023/12/20 04:57:23;;;;;;;36.50;22.40;;;;;;;0.09;100.00;100658.17;109007;1255;71843;-79
2023/12/20 04:59:52;;;;;;;37.20;23.60;;;;;;;0.06;100.00;100656.73;109018;1252;62060;-81
2023/12/20 05:02:21;;;;;;;46.40;25.70;;;;;;;0.05;100.00;100652.33;109005;1254;61317;-80
2023/12/20 05:04:49;;;;;;;49.20;29.00;;;;;;;0.06;100.00;100646.12;109060;1254;73885;-83
2023/12/20 05:07:22;;;;;;;51.70;28.90;;;;;;;0.07;100.00;100647.98;109063;1254;70599;-80
2023/12/20 05:09:51;;;;;;;43.60;27.10;;;;;;;0.10;100.00;100642.93;109022;1253;67846;-85
2023/12/20 05:12:20;;;;;;;49.00;31.30;;;;;;;0.16;100.00;100647.70;108982;1254;71837;-84
2023/12/20 05:14:49;;;;;;;45.90;27.40;;;;;;;0.19;100.00;100646.92;109242;1251;60463;-78
2023/12/20 05:17:20;;;;;;;41.50;25.00;;;;;;;0.05;100.00;100630.40;109248;1251;60101;-79
2023/12/20 05:19:48;;;;;;;38.90;24.20;;;;;;;0.10;100.00;100638.48;109196;1254;74040;-84
2023/12/20 05:22:19;;;;;;;44.30;27.10;;;;;;;0.10;100.00;100636.08;109259;1251;72508;-84
2023/12/20 05:24:49;;;;;;;42.80;27.80;;;;;;;0.18;100.00;100627.76;109193;1252;67952;-85
2023/12/20 05:27:17;;;;;;;47.30;26.80;;;;;;;0.26;100.00;100624.08;109199;1251;73766;-75
2023/12/20 05:29:46;;;;;;;44.50;26.80;;;;;;;0.35;100.00;100626.57;109173;1251;61474;-84
2023/12/20 05:32:16;;;;;;;44.80;26.00;;;;;;;0.37;100.00;100626.66;109196;1251;60290;-77
2023/12/20 05:34:45;;;;;;;41.00;25.60;;;;;;;0.36;100.00;100626.36;108962;1252;69885;-84
2023/12/20 05:37:14;;;;;;;44.80;26.10;;;;;;;0.35;100.00;100625.52;109192;1251;71663;-83
2023/12/20 05:39:43;;;;;;;48.10;27.20;;;;;;;0.32;100.00;100622.88;109309;1251;67743;-85
2023/12/20 05:42:12;;;;;;;49.40;28.60;;;;;;;0.28;100.00;100622.84;109553;1251;70039;-84
2023/12/20 05:44:41;;;;;;;49.90;28.50;;;;;;;0.29;100.00;100626.75;109148;1251;61074;-82
2023/12/20 05:47:10;;;;;;;51.30;28.10;;;;;;;0.31;100.00;100626.70;109326;1252;60213;-82
2023/12/20 05:49:39;;;;;;;52.00;28.80;;;;;;;0.34;100.00;100624.55;109445;1251;71488;-84
2023/12/20 05:52:08;;;;;;;52.70;29.00;;;;;;;0.34;100.00;100627.11;109414;1254;72196;-84
2023/12/20 05:54:36;;;;;;;57.00;31.00;;;;;;;0.37;100.00;100629.08;109265;1251;69995;-84
2023/12/20 05:57:05;;;;;;;61.40;33.30;;;;;;;0.32;100.00;100621.89;109216;1251;72422;-83
2023/12/20 05:59:34;;;;;;;56.60;30.70;;;;;;;0.32;100.00;100630.25;109190;1254;59654;-83
2023/12/20 06:02:04;;;;;;;59.70;31.50;;;;;;;0.33;100.00;100626.62;109277;1253;61223;-84
2023/12/20 06:04:33;;;;;;;52.70;31.10;;;;;;;0.38;100.00;100629.73;109310;1252;72309;-85
2023/12/20 06:07:03;;;;;;;57.50;31.10;;;;;;;0.40;100.00;100621.26;109304;1254;70018;-84
2023/12/20 06:09:32;;;;;;;55.70;31.80;;;;;;;0.48;100.00;100632.15;109257;1251;68962;-83
2023/12/20 06:12:00;;;;;;;58.20;30.90;;;;;;;0.47;100.00;100632.17;109308;1253;73749;-84
2023/12/20 06:14:30;;;;;;;57.40;31.30;;;;;;;0.49;100.00;100631.26;109277;1254;60797;-84
2023/12/20 06:16:59;;;;;;;58.60;31.90;;;;;;;0.53;100.00;100620.70;109319;1251;59358;-83
2023/12/20 06:19:28;;;;;;;57.10;32.50;;;;;;;0.67;100.00;100624.84;109299;1252;73450;-84
2023/12/20 06:21:57;;;;;;;54.70;30.10;;;;;;;0.82;100.00;100626.93;109243;1251;70743;-82
2023/12/20 06:24:27;;;;;;;57.60;31.50;;;;;;;0.89;100.00;100627.69;109286;1251;70200;-77
2023/12/20 06:27:17;;;;;;;50.30;31.20;;;;;;;1.20;100.00;100627.84;104856;1276;600813;-76
2023/12/20 06:29:46;;;;;;;51.40;30.50;;;;;;;1.35;100.00;100626.64;107062;1252;59532;-75
2023/12/20 06:32:15;;;;;;;47.80;28.20;;;;;;;1.49;100.00;100623.04;107165;1251;59236;-75
2023/12/20 06:34:44;;;;;;;58.00;29.70;;;;;;;1.51;100.00;100627.27;107013;1250;70374;-76
2023/12/20 06:37:15;;;;;;;47.90;27.90;;;;;;;1.63;100.00;100632.48;107006;1248;71438;-76
2023/12/20 06:39:44;;;;;;;45.00;28.30;;;;;;;1.77;100.00;100634.04;107007;1252;209233;-76
2023/12/20 06:42:13;;;;;;;49.60;27.60;;;;;;;1.72;100.00;100629.27;107025;1259;62483;-76
2023/12/20 06:44:42;;;;;;;50.80;30.70;;;;;;;1.60;100.00;100622.65;107097;1248;59489;-76
2023/12/20 06:47:11;;;;;;;52.80;30.20;;;;;;;1.57;100.00;100614.70;107120;1250;59599;-79
2023/12/20 06:49:40;;;;;;;51.80;29.20;;;;;;;1.53;100.00;100617.04;107105;1248;69212;-76
2023/12/20 06:52:10;;;;;;;50.10;28.40;;;;;;;1.59;100.00;100618.20;107073;1254;71961;-77
2023/12/20 06:54:39;;;;;;;57.60;34.20;;;;;;;1.63;100.00;100611.53;107206;1251;69055;-76
2023/12/20 07:05:07;;;;;;;48.20;28.40;;;;;;;1.90;100.00;100605.40;103902;1284;599973;-77
2023/12/20 07:07:36;;;;;;;47.70;27.90;;;;;;;1.95;100.00;100602.63;106217;1258;59067;-77
2023/12/20 07:10:07;;;;;;;48.00;28.90;;;;;;;2.08;100.00;100603.48;106194;1269;60307;-77
2023/12/20 07:12:36;;;;;;;44.80;29.30;;;;;;;2.11;100.00;100603.04;106729;1254;61244;-76
2023/12/20 07:15:07;;;;;;;47.50;27.20;;;;;;;2.28;100.00;100601.48;106956;1252;70554;-77
2023/12/20 07:17:35;;;;;;;45.10;28.50;;;;;;;2.33;100.00;100598.36;106832;1247;228114;-77
2023/12/20 07:20:09;;;;;;;53.80;30.90;;;;;;;2.44;100.00;100599.30;107216;1248;72732;-77
2023/12/20 07:22:38;;;;;;;;;;;;;;;2.51;100.00;100597.48;107359;1248;57603;-77
2023/12/20 07:25:08;;;;;;;48.10;29.20;;;;;;;2.55;100.00;100595.95;107284;1247;60037;-77
2023/12/20 07:27:37;;;;;;;45.70;28.90;;;;;;;2.65;100.00;100596.56;107492;1245;62727;-78
2023/12/20 07:30:09;;;;;;;46.40;29.20;;;;;;;2.73;100.00;100595.20;107533;1255;61589;-79
2023/12/20 07:32:41;;;;;;;;;;;;;;;2.78;100.00;100595.32;107395;1246;59488;-77
2023/12/20 07:35:10;;;;;;;49.40;29.10;;;;;;;2.85;100.00;100598.47;107492;1245;62634;-77
2023/12/20 07:37:39;;;;;;;52.00;30.10;;;;;;;2.94;100.00;100601.55;107413;1246;58965;-77
2023/12/20 07:40:09;;;;;;;45.70;27.70;;;;;;;2.99;100.00;100601.48;107428;1256;59757;-78
2023/12/20 07:42:38;;;;;;;47.70;28.70;;;;;;;3.04;100.00;100601.46;107181;1249;61985;-77
2023/12/20 07:45:09;;;;;;;47.50;29.00;;;;;;;3.10;100.00;100604.45;107327;1245;61615;-77
2023/12/20 07:47:37;;;;;;;50.90;29.70;;;;;;;3.16;100.00;100605.60;107395;1245;70430;-77
2023/12/20 07:50:07;;;;;;;48.90;28.50;;;;;;;3.21;100.00;100604.54;107291;1245;73905;-77
2023/12/20 07:52:42;;;;;;;46.20;26.40;;;;;;;3.35;100.00;100604.08;107131;1253;61928;-77
2023/12/20 07:55:11;;;;;;;50.60;29.50;;;;;;;3.40;100.00;100609.01;107173;1256;57810;-77
2023/12/20 07:57:41;;;;;;;47.70;28.70;;;;;;;3.36;100.00;100609.69;107134;1251;71882;-76
2023/12/20 08:08:08;;;;;;;47.80;26.20;;;;;;;3.64;100.00;100577.61;104248;1277;601704;-78
2023/12/20 08:10:37;;;;;;;45.30;27.00;;;;;;;3.63;100.00;100572.31;106749;1251;58438;-77
2023/12/20 08:13:07;;;;;;;47.80;28.90;;;;;;;3.74;100.00;100579.94;106769;1251;59021;-77
2023/12/20 08:15:37;;;;;;;52.70;29.90;;;;;;;3.84;100.00;100579.10;106792;1260;71022;-77
2023/12/20 08:18:09;;;;;;;48.90;30.40;;;;;;;3.92;100.00;100576.16;106773;1251;71529;-76
2023/12/20 08:20:39;;;;;;;45.80;28.30;;;;;;;3.99;100.00;100573.23;106535;1258;218652;-75
2023/12/20 08:23:09;;;;;;;47.00;29.90;;;;;;;4.12;100.00;100570.05;106981;1257;74771;-76
2023/12/20 08:25:38;;;;;;;46.70;28.50;;;;;;;4.16;100.00;100564.83;107011;1248;62460;-77
2023/12/20 08:28:07;;;;;;;47.80;28.60;;;;;;;4.31;100.00;100562.59;107060;1247;59917;-78
2023/12/20 08:30:36;;;;;;;45.50;27.50;;;;;;;4.35;100.00;100555.48;107070;1249;61967;-77
2023/12/20 08:33:11;;;;;;;49.00;28.90;;;;;;;4.35;100.00;100555.83;107182;1245;72025;-77
2023/12/20 08:35:40;;;;;;;48.20;27.60;;;;;;;4.47;100.00;100555.20;107120;1248;60791;-77
2023/12/20 08:38:09;;;;;;;43.70;27.10;;;;;;;4.45;100.00;100549.43;107081;1258;71320;-77
2023/12/20 08:40:40;;;;;;;48.60;28.40;;;;;;;4.51;100.00;100544.00;107269;1248;62260;-79
2023/12/20 08:43:13;;;;;;;45.30;27.90;;;;;;;4.51;100.00;100541.21;107133;1258;61648;-77
2023/12/20 08:45:42;;;;;;;44.30;27.30;;;;;;;4.56;100.00;100543.40;107139;1248;62577;-77
2023/12/20 08:48:11;;;;;;;45.80;27.60;;;;;;;4.71;100.00;100539.20;107159;1245;72151;-77
2023/12/20 08:50:41;;;;;;;51.40;29.80;;;;;;;4.84;100.00;100532.34;107100;1247;71078;-77
2023/12/20 08:53:10;;;;;;;49.70;27.20;;;;;;;4.93;100.00;100523.89;107114;1248;63492;-77
2023/12/20 08:55:39;;;;;;;48.90;28.30;;;;;;;5.09;100.00;100517.05;107190;1247;58970;-77
2023/12/20 08:58:08;;;;;;;54.00;29.00;;;;;;;5.21;100.00;100517.13;107215;1248;58973;-78
2023/12/20 09:00:43;;;;;;;45.90;28.20;;;;;;;5.21;100.00;100506.09;107129;1258;62715;-78
2023/12/20 09:03:12;;;;;;;43.60;28.40;;;;;;;5.33;100.00;100499.02;107137;1248;61631;-79
2023/12/20 09:05:41;;;;;;;48.00;28.10;;;;;;;5.44;100.00;100490.14;107198;1258;60210;-79
2023/12/20 09:08:12;;;;;;;51.80;29.30;;;;;;;5.56;100.00;100486.33;107104;1248;63146;-78
2023/12/20 09:10:41;;;;;;;40.80;25.60;;;;;;;5.73;100.00;100478.36;107169;1248;59914;-79
2023/12/20 09:13:10;;;;;;;49.60;29.70;;;;;;;5.77;100.00;100477.23;107160;1258;60879;-78
2023/12/20 09:15:39;;;;;;;43.20;25.80;;;;;;;5.78;100.00;100476.83;106897;1252;63521;-78
2023/12/20 09:18:08;;;;;;;48.50;26.90;;;;;;;5.93;100.00;100473.23;107053;1248;61318;-77
2023/12/20 09:20:37;;;;;;;42.00;26.00;;;;;;;5.92;100.00;100471.56;107053;1248;70409;-77
2023/12/20 09:23:11;;;;;;;38.00;24.40;;;;;;;5.94;100.00;100470.78;107278;1255;63221;-77
2023/12/20 09:25:40;;;;;;;44.30;27.30;;;;;;;6.01;100.00;100466.42;107153;1255;59131;-77
2023/12/20 09:28:10;;;;;;;55.40;28.60;;;;;;;6.01;100.00;100463.66;107306;1245;58883;-77
2023/12/20 09:30:39;;;;;;;43.50;26.80;;;;;;;6.10;100.00;100456.40;107399;1245;61845;-80
2023/12/20 09:33:09;;;;;;;45.70;30.70;;;;;;;6.29;100.00;100456.14;107238;1249;61188;-79
2023/12/20 09:35:38;;;;;;;51.10;34.40;;;;;;;6.27;100.00;100461.14;107326;1245;60941;-77
2023/12/20 09:38:08;;;;;;;51.20;32.20;;;;;;;6.24;100.00;100462.30;107447;1256;62457;-76
2023/12/20 09:40:41;;;;;;;49.10;31.40;;;;;;;6.45;100.00;100456.06;107116;1245;59038;-78
2023/12/20 09:43:20;;;;;;;43.50;27.50;;;;;;;6.51;100.00;100451.08;106942;1248;59078;-78
2023/12/20 09:45:54;;;;;;;59.70;29.60;;;;;;;6.52;100.00;100444.39;106918;1245;73230;-79
2023/12/20 09:48:26;;;;;;;47.70;28.50;;;;;;;6.60;100.00;100433.70;107223;1244;71775;-77
2023/12/20 09:50:58;;;;;;;47.10;27.50;;;;;;;6.63;100.00;100431.48;107031;1256;69993;-78
2023/12/20 09:53:29;;;;;;;52.00;28.50;;;;;;;6.70;100.00;100423.80;107178;1244;74123;-77
2023/12/20 09:56:02;;;;;;;40.80;27.40;;;;;;;6.70;100.00;100423.59;107118;1256;62794;-78
2023/12/20 09:58:31;;;;;;;45.70;28.00;;;;;;;6.77;100.00;100418.86;107150;1248;58975;-78
2023/12/20 10:01:01;;;;;;;48.10;27.60;;;;;;;6.72;100.00;100410.52;107287;1246;61220;-77
2023/12/20 10:03:31;;;;;;;49.20;27.90;;;;;;;6.69;100.00;100395.79;107347;1245;60990;-77
2023/12/20 10:06:00;;;;;;;48.70;29.90;;;;;;;6.77;100.00;100393.91;107380;1248;59565;-78
2023/12/20 10:08:32;;;;;;;44.20;26.50;;;;;;;6.94;100.00;100391.15;107291;1248;73040;-78
2023/12/20 10:11:02;;;;;;;41.00;27.00;;;;;;;6.98;100.00;100387.40;107412;1245;62005;-79
2023/12/20 10:13:31;;;;;;;41.60;26.50;;;;;;;7.12;100.00;100381.70;107323;1248;60798;-76
2023/12/20 10:16:01;;;;;;;42.10;27.10;;;;;;;7.23;100.00;100376.99;107367;1256;73705;-78
2023/12/20 10:18:31;;;;;;;48.70;29.70;;;;;;;7.35;100.00;100371.05;107344;1245;71237;-78
2023/12/20 10:21:09;;;;;;;45.50;27.80;;;;;;;7.42;100.00;100359.15;107374;1244;70839;-77
2023/12/20 10:23:39;;;;;;;47.10;29.40;;;;;;;7.38;100.00;100353.15;107018;1257;72465;-79
2023/12/20 10:26:09;;;;;;;46.00;28.10;;;;;;;7.44;100.00;100351.44;107066;1248;60118;-79
2023/12/20 10:28:38;;;;;;;43.70;27.80;;;;;;;7.66;100.00;100344.63;107132;1245;61027;-77
2023/12/20 10:31:08;;;;;;;45.80;28.70;;;;;;;7.77;100.00;100336.05;107084;1245;72564;-80
2023/12/20 10:33:40;;;;;;;44.20;27.00;;;;;;;8.01;100.00;100329.05;107023;1244;71711;-80
2023/12/20 10:36:09;;;;;;;49.00;29.30;;;;;;;8.10;100.00;100323.80;107032;1244;70800;-79
2023/12/20 10:38:42;;;;;;;46.50;28.40;;;;;;;7.90;100.00;100321.50;107109;1256;62679;-80
2023/12/20 10:41:12;;;;;;;43.80;27.90;;;;;;;7.73;100.00;100312.41;107141;1244;58848;-78
2023/12/20 10:43:42;;;;;;;47.50;28.30;;;;;;;7.71;100.00;100306.29;107218;1249;57986;-78
2023/12/20 10:46:11;;;;;;;43.30;28.70;;;;;;;7.94;100.00;100302.30;107228;1245;61377;-77
2023/12/20 10:48:42;;;;;;;43.60;28.30;;;;;;;8.10;100.00;100300.33;107114;1248;72148;-77
2023/12/20 10:51:12;;;;;;;43.20;27.80;;;;;;;8.59;100.00;100294.89;107576;1245;60326;-78
2023/12/20 10:53:40;;;;;;;48.50;29.80;;;;;;;8.76;100.00;100284.64;107731;1244;73762;-78
2023/12/20 10:56:15;;;;;;;41.30;27.60;;;;;;;9.02;100.00;100281.37;107308;1248;59113;-81
2023/12/20 10:58:49;;;;;;;40.00;27.40;;;;;;;9.46;100.00;100274.73;107070;1245;60121;-80
2023/12/20 11:01:20;;;;;;;46.00;27.90;;;;;;;9.46;100.00;100272.08;107013;1248;72901;-80
2023/12/20 11:03:51;;;;;;;42.10;27.10;;;;;;;9.99;100.00;100262.34;107087;1247;62380;-80
2023/12/20 11:06:49;;;;;;;42.60;26.70;;;;;;;10.41;100.00;100253.15;107114;1246;70273;-79
2023/12/20 11:09:36;;;;;;;43.00;25.90;;;;;;;10.91;100.00;100249.31;107107;1245;73366;-78
2023/12/20 11:12:32;;;;;;;42.70;26.60;;;;;;;11.40;100.00;100241.45;107260;1245;61527;-81
2023/12/20 11:15:04;;;;;;;39.30;25.30;;;;;;;11.46;100.00;100233.09;106952;1248;60706;-79
2023/12/20 11:17:35;;;;;;;36.60;26.30;;;;;;;11.76;100.00;100226.08;107125;1247;62101;-78
2023/12/20 11:20:07;;;;;;;44.20;26.50;;;;;;;11.85;100.00;100224.84;107077;1245;72178;-82
2023/12/20 11:22:38;;;;;;;;;;;;;;;11.63;100.00;100219.85;107143;1257;68848;-79
2023/12/20 11:25:11;;;;;;;39.20;27.60;;;;;;;11.78;100.00;100218.98;107042;1256;64726;-81
2023/12/20 11:27:45;;;;;;;39.50;27.70;;;;;;;11.72;100.00;100214.70;107061;1247;58166;-82
2023/12/20 11:30:20;;;;;;;40.40;27.00;;;;;;;11.45;100.00;100205.52;107040;1255;60431;-80